Observations for LUTON AIRPORT, United Kingdom (EGGW)

EGGW 201650Z AUTO 27017KT 9999 BKN021 BKN029 21/16 Q1018
EGGW 201620Z AUTO 27014KT 9999 SCT022 BKN038 23/16 Q1018
EGGW 201550Z AUTO 27016KT 9999 FEW027 SCT032 BKN043 22/16 Q1019 
EGGW 201520Z AUTO 27014KT 9999 BKN026 BKN037 22/15 Q1019
EGGW 201450Z AUTO 27015KT 230V300 9999 SCT025 BKN037 BKN043 23/15 Q1019 
EGGW 201420Z AUTO 27015KT 9999 SCT023 OVC039 23/16 Q1019
EGGW 201350Z AUTO 24015KT 9999 SCT026 BKN033 OVC040 22/16 Q1019 
EGGW 201320Z AUTO 25012KT 9999 BKN029 OVC036 22/16 Q1019
EGGW 201250Z AUTO 23010KT 200V270 9999 BKN024 BKN030 OVC041 22/16 Q1019 
EGGW 201220Z AUTO 23012KT 9999 BKN023 OVC033 22/16 Q1019
EGGW 201150Z 24010KT 200V260 9999 BKN021 22/16 Q1019
EGGW 201120Z AUTO 23012KT 9999 SCT018 BKN022 OVC027 22/16 Q1019 
EGGW 201050Z AUTO 22010KT 9999 BKN018 OVC022 21/16 Q1020
EGGW 201020Z AUTO 23011KT 200V280 9999 OVC016 21/15 Q1020   
EGGW 200950Z AUTO 22009KT 9999 OVC014 20/15 Q1020   
EGGW 200920Z AUTO 22011KT 9999 OVC012 19/15 Q1020   
EGGW 200850Z AUTO 23016KT 9999 OVC010 19/15 Q1020   
EGGW 200820Z AUTO 23014KT 9999 BKN009 18/15 Q1020   
EGGW 200750Z AUTO 22012KT 9999 OVC008 18/15 Q1020   
EGGW 200720Z AUTO 23011KT 9999 OVC007 16/15 Q1020   
EGGW 200650Z AUTO 22009KT 9999 BKN006 OVC011 16/15 Q1020
EGGW 200620Z 21009KT 170V230 9999 BKN003 OVC015 16/15 Q1020 
EGGW 200550Z AUTO 22008KT 4600 BR OVC001 15/15 Q1020
EGGW 200520Z AUTO 22010KT 1100 R26/0900 BR OVC001 15/14 Q1020   
EGGW 200450Z AUTO 20010KT 170V230 0550 R26/0550 FG VV/// 15/14 Q1020
EGGW 200420Z AUTO 21008KT 0300 R26/0650 FG BKN001 15/14 Q1020   
EGGW 200350Z AUTO 18005KT 9999 NCD 15/14 Q1020  
EGGW 200320Z AUTO 20004KT 140V240 9999 NCD 15/14 Q1020  
EGGW 200250Z AUTO 22006KT 9999 NCD 16/15 Q1020  
EGGW 200220Z AUTO 22007KT 9999 BKN011 16/15 Q1020   
EGGW 200150Z AUTO 23008KT 9999 OVC010 16/15 Q1021   
EGGW 200120Z AUTO 23004KT 180V260 9999 OVC010 16/15 Q1021   
EGGW 200050Z AUTO 22005KT 9999 FEW012 16/14 Q1021   
EGGW 200020Z AUTO 25007KT 9999 NCD 16/15 Q1021  
EGGW 192350Z AUTO 24008KT 9999 NCD 16/15 Q1022  
EGGW 192320Z AUTO 22007KT 9999 NCD 17/15 Q1022  
EGGW 192250Z AUTO 22006KT 9999 BKN020 17/15 Q1022   
EGGW 192220Z AUTO 22008KT 9999 NCD 17/15 Q1022  
EGGW 192150Z AUTO 22006KT 9999 NCD 17/15 Q1022  
EGGW 192120Z AUTO 22006KT 9999 NCD 18/15 Q1022  
EGGW 192050Z AUTO 24008KT 9999 FEW043 18/16 Q1022   
EGGW 192020Z AUTO 25010KT 9999 SCT041 19/16 Q1022   
EGGW 191950Z AUTO 25009KT 9999 FEW024 BKN044 20/16 Q1022
EGGW 191920Z AUTO 24007KT 9999 BKN023 OVC042 21/16 Q1022
EGGW 191850Z AUTO 23009KT 9999 SCT027 BKN042 OVC049 21/16 Q1022 
EGGW 191820Z AUTO 23010KT 9999 BKN043 22/16 Q1022   
EGGW 191750Z AUTO 24009KT 9999 SCT029 BKN037 22/16 Q1022
EGGW 191720Z AUTO 24012KT 9999 OVC036 22/16 Q1022   
EGGW 191650Z AUTO 23009KT 9999 FEW028 SCT038 BKN047 23/16 Q1022 
EGGW 191620Z AUTO 23011KT 9999 FEW027 BKN033 BKN048 23/16 Q1022